• Join FlightAware (Why Join?)
  • Login
  • US Flag 
09:26PM EST


 

Airport Tracker/Info


-or-


 

Live Flight TrackerFlight Track Log ✈ ASQ4406 ✈ 20-May-2013 ✈ KIAH - KCRP

Flight Track Log - Related Links

Times and Time Zones

All times are in EDT time to prevent confusion due to time zone crossing. See the ASQ4406 flight status page for this flight to view local times or setup timezone preferences in your user account.

Time Position Orientation Groundspeed Altitude Reporting Facility
EDT Latitude Longitude Course Direction KTS MPH feet Rate Location/Type
07:38PM 29.9614 -95.3411 206° Southwest 146 168 900  Level Houston Center
07:39PM 29.9333 -95.3083 135° Southeast 195 224 1,800 1,380 Climbing Houston Center
07:40PM 29.9053 -95.2725 132° Southeast 218 251 3,100 2,100 Climbing Houston Center
07:40PM 29.8883 -95.2536 136° Southeast 257 296 4,000 2,100 Climbing Houston Center
07:41PM 29.7436 -95.4605 208° Southwest  Level FlightAware Approximate
07:41PM 29.8583 -95.2131 130° Southeast 237 273 5,300  Level Houston Center
07:41PM 29.8356 -95.1831 131° Southeast 259 298 6,300 2,100 Climbing Houston Center
07:42PM 29.6661 -95.5087 209° Southwest  Level FlightAware Approximate
07:42PM 29.8111 -95.1500 130° Southeast 256 295 7,500  Level Houston Center
07:42PM 29.7817 -95.1439 170° South 263 303 8,000 1,500 Climbing Houston Center
07:43PM 29.5885 -95.5564 206° Southwest  Level FlightAware Approximate
07:43PM 29.7375 -95.1389 174° South 264 304 9,100  Level Houston Center
07:44PM 29.5137 -95.5980 206° Southwest  Level FlightAware Approximate
07:44PM 29.6625 -95.1958 213° Southwest 281 323 10,600  Level Houston Center
07:45PM 29.6036 -95.2692 227° Southwest 316 364 11,200 840 Climbing Houston Center
07:46PM 29.5411 -95.3486 228° Southwest 334 384 12,400 1,020 Climbing Houston Center
07:47PM 29.4778 -95.4303 228° Southwest 341 392 13,400 1,020 Climbing Houston Center
07:48PM 29.4114 -95.5150 228° Southwest 353 406 14,500 1,200 Climbing Houston Center
07:49PM 29.3269 -95.6167 226° Southwest 364 419 15,900 1,200 Climbing Houston Center
07:50PM 29.2569 -95.7006 226° Southwest 365 420 17,100 1,140 Climbing Houston Center
07:51PM 29.1872 -95.7861 227° Southwest 367 422 18,300 1,140 Climbing Houston Center
07:52PM 29.1169 -95.8708 226° Southwest 368 423 19,500 1,140 Climbing Houston Center
07:53PM 29.0444 -95.9569 226° Southwest 375 432 20,700 1,140 Climbing Houston Center
07:54PM 28.9625 -96.0567 227° Southwest 371 427 21,900 600 Climbing Houston Center
07:55PM 28.8881 -96.1458 226° Southwest 385 443 22,000  Climbing Houston Center
07:56PM 28.8103 -96.2403 227° Southwest 403 464 22,000  Level Houston Center
07:57PM 28.7297 -96.3356 226° Southwest 413 475 22,000 -180 Level Houston Center
07:58PM 28.6475 -96.4344 227° Southwest 424 488 21,700 -1,200 Descending Houston Center
07:59PM 28.5686 -96.5289 226° Southwest 413 475 19,600 -1,980 Descending Houston Center
08:00PM 28.4894 -96.6219 226° Southwest 408 470 17,700 -1,860 Descending Houston Center
08:01PM 28.4133 -96.7144 227° Southwest 406 467 15,800 -2,160 Descending Houston Center
08:02PM 28.3231 -96.8231 227° Southwest 400 460 13,300 -1,980 Descending Houston Center
08:03PM 28.2506 -96.9069 226° Southwest 386 444 11,800 -1,500 Descending Houston Center
08:04PM 28.2106 -96.9956 243° Southwest 327 376 10,500 -1,140 Descending Houston Center
08:05PM 28.1767 -97.0694 243° Southwest 285 328 9,800 -900 Descending Houston Center
08:06PM 28.1700 -97.0839 242° Southwest 303 349 9,500 -1,020 Descending Houston Center
08:07PM 28.1344 -97.1608 242° Southwest 281 323 8,500 -1,080 Descending Houston Center
08:08PM 28.0886 -97.2647 243° Southwest 285 328 7,200 -1,080 Descending Houston Center
08:08PM 28.0667 -97.3128 243° Southwest 274 315 6,600 -1,020 Descending Houston Center
08:09PM 28.0333 -97.3933 245° Southwest 266 306 5,500 -780 Descending Houston Center
08:11PM 27.9961 -97.4853 245° Southwest 266 306 4,900 -660 Descending Houston Center
08:12PM 27.9653 -97.5600 245° Southwest 264 304 4,100 -960 Descending Houston Center
08:13PM 27.9258 -97.6450 242° Southwest 241 277 2,900 -840 Descending Houston Center
08:14PM 27.8781 -97.6319 166° South 243 280 2,400 -600 Descending Houston Center